createdAt,value
2019-02-06T00:03:40.300Z,27.70
2019-02-06T00:06:08.504Z,26.87
2019-02-06T00:08:36.716Z,28.35
2019-02-06T00:11:04.923Z,26.82
2019-02-06T00:13:34.839Z,22.90
2019-02-06T00:16:03.037Z,18.02
2019-02-06T00:18:31.255Z,20.77
2019-02-06T00:21:20.621Z,25.62
2019-02-06T00:23:48.473Z,20.15
2019-02-06T00:26:18.394Z,37.73
2019-02-06T00:28:46.581Z,20.82
2019-02-06T00:31:14.801Z,34.45
2019-02-06T00:33:42.995Z,24.85
2019-02-06T00:36:11.190Z,32.78
2019-02-06T00:38:58.758Z,22.22
2019-02-06T00:41:26.959Z,33.38
2019-02-06T00:43:55.154Z,30.45
2019-02-06T00:46:23.343Z,23.25
2019-02-06T00:48:51.551Z,27.62
2019-02-06T00:51:19.747Z,26.25
2019-02-06T00:53:49.667Z,30.30
2019-02-06T00:56:17.863Z,29.72
2019-02-06T00:58:46.068Z,19.60
2019-02-06T01:01:33.620Z,21.52
2019-02-06T01:04:01.830Z,27.77
2019-02-06T01:06:30.025Z,14.98
2019-02-06T01:08:58.237Z,19.17
2019-02-06T01:11:26.431Z,19.10
2019-02-06T01:13:54.637Z,32.13
2019-02-06T01:16:22.837Z,20.50
2019-02-06T01:18:51.117Z,28.10
2019-02-06T01:21:19.308Z,25.37
2019-02-06T01:23:47.513Z,23.50
2019-02-06T01:26:15.704Z,28.50
2019-02-06T01:28:43.908Z,20.05
2019-02-06T01:34:01.000Z,30.40
2019-02-06T01:36:29.190Z,35.43
2019-02-06T01:39:37.499Z,23.05
2019-02-06T01:42:05.695Z,23.42
2019-02-06T01:44:53.020Z,35.90
2019-02-06T01:47:21.213Z,27.20
2019-02-06T01:49:49.415Z,26.97
2019-02-06T01:52:17.612Z,31.77
2019-02-06T01:54:45.822Z,31.57
2019-02-06T01:57:33.378Z,19.45
2019-02-06T02:00:01.587Z,18.75
2019-02-06T02:05:37.962Z,32.13
2019-02-06T02:08:06.375Z,15.18
2019-02-06T02:10:34.579Z,23.67
2019-02-06T02:13:02.773Z,32.40
2019-02-06T02:15:30.977Z,20.88
2019-02-06T02:20:46.417Z,21.50
2019-02-06T02:23:14.605Z,15.78
2019-02-06T02:25:42.806Z,19.15
2019-02-06T02:28:11.004Z,20.80
2019-02-06T02:30:58.563Z,27.93
2019-02-06T02:33:26.786Z,31.00
2019-02-06T02:35:54.959Z,21.48
2019-02-06T02:38:23.153Z,27.87
2019-02-06T02:40:53.077Z,28.15
2019-02-06T02:46:08.518Z,31.45
2019-02-06T02:48:36.715Z,30.82
2019-02-06T02:51:04.919Z,33.98
2019-02-06T02:56:23.932Z,36.70
2019-02-06T02:58:53.652Z,24.10
2019-02-06T03:06:36.388Z,21.02
2019-02-06T03:09:44.703Z,48.60
2019-02-06T03:12:12.894Z,33.48
2019-02-06T03:14:41.103Z,31.48
2019-02-06T03:17:09.293Z,32.88
2019-02-06T03:19:37.494Z,33.95
2019-02-06T03:22:05.689Z,35.13
2019-02-06T03:24:35.618Z,29.63
2019-02-06T03:30:31.225Z,31.80
2019-02-06T03:32:59.432Z,31.15
2019-02-06T03:35:27.633Z,41.00
2019-02-06T03:37:55.824Z,25.57
2019-02-06T03:40:24.036Z,38.75
2019-02-06T03:42:52.230Z,32.08
2019-02-06T03:45:20.435Z,31.82
2019-02-06T03:47:48.629Z,43.13
2019-02-06T03:50:37.826Z,37.90
2019-02-06T03:53:06.018Z,45.12
2019-02-06T03:55:34.247Z,32.58
2019-02-06T03:58:02.444Z,39.05
2019-02-06T04:00:30.654Z,42.60
2019-02-06T04:02:58.851Z,32.60
2019-02-06T04:05:27.055Z,50.52
2019-02-06T04:08:14.612Z,56.60
2019-02-06T04:10:42.816Z,33.80
2019-02-06T04:13:11.009Z,34.30
2019-02-06T04:15:39.213Z,39.73
2019-02-06T04:18:07.413Z,46.53
2019-02-06T04:20:35.615Z,24.90
2019-02-06T04:23:03.872Z,46.20
2019-02-06T04:25:33.741Z,36.48
2019-02-06T04:28:01.938Z,49.88
2019-02-06T04:30:30.141Z,34.90
2019-02-06T04:32:58.331Z,28.27
2019-02-06T04:35:26.643Z,39.03
2019-02-06T04:37:56.464Z,57.05
2019-02-06T04:40:26.365Z,43.25
2019-02-06T04:42:54.573Z,37.40
2019-02-06T04:45:22.777Z,32.80
2019-02-06T04:47:50.959Z,49.63
2019-02-06T04:50:19.152Z,46.02
2019-02-06T04:53:06.716Z,43.25
2019-02-06T04:55:34.907Z,47.93
2019-02-06T04:58:03.121Z,34.50
2019-02-06T05:00:31.309Z,52.95
2019-02-06T05:03:18.882Z,36.68
2019-02-06T05:05:47.066Z,35.05
2019-02-06T05:08:15.276Z,37.95
2019-02-06T05:10:43.466Z,30.05
2019-02-06T05:13:11.681Z,57.15
2019-02-06T05:15:39.858Z,31.97
2019-02-06T05:18:08.066Z,29.32
2019-02-06T05:23:50.465Z,41.92
2019-02-06T05:26:18.630Z,35.75
2019-02-06T05:28:46.832Z,39.45
2019-02-06T05:31:15.102Z,32.23
2019-02-06T05:33:43.301Z,29.57
2019-02-06T05:36:11.497Z,24.95
2019-02-06T05:38:59.061Z,30.15
2019-02-06T05:44:14.546Z,42.65
2019-02-06T05:46:42.696Z,24.98
2019-02-06T05:49:10.917Z,40.70
2019-02-06T05:51:39.113Z,41.35
2019-02-06T05:54:07.335Z,28.25
2019-02-06T05:56:37.243Z,34.58
2019-02-06T05:59:05.451Z,24.70
2019-02-06T06:01:33.639Z,35.13
2019-02-06T06:04:01.908Z,30.15
2019-02-06T06:06:30.045Z,18.17
2019-02-06T06:08:58.285Z,41.18
2019-02-06T06:11:26.476Z,27.42
2019-02-06T06:13:56.402Z,30.05
2019-02-06T06:16:24.648Z,33.67
2019-02-06T06:18:52.856Z,41.98
2019-02-06T06:21:21.039Z,32.10
2019-02-06T06:23:49.249Z,30.10
2019-02-06T06:26:17.488Z,31.33
2019-02-06T06:28:45.640Z,25.70
2019-02-06T06:31:15.556Z,29.05
2019-02-06T06:33:43.761Z,48.65
2019-02-06T06:36:11.953Z,31.42
2019-02-06T06:38:40.151Z,26.80
2019-02-06T06:41:08.356Z,25.88
2019-02-06T06:43:36.550Z,29.75
2019-02-06T06:46:23.877Z,42.60
2019-02-06T06:48:52.064Z,31.93
2019-02-06T06:51:20.267Z,39.50
2019-02-06T06:53:48.455Z,21.75
2019-02-06T06:56:16.680Z,26.30
2019-02-06T07:01:32.112Z,47.48
2019-02-06T07:04:00.298Z,27.07
2019-02-06T07:06:28.505Z,36.23
2019-02-06T07:08:56.707Z,37.53
2019-02-06T07:13:58.290Z,18.80
2019-02-06T07:16:38.488Z,36.70
2019-02-06T07:19:06.704Z,31.15
2019-02-06T07:21:34.908Z,23.25
2019-02-06T07:24:03.187Z,28.12
2019-02-06T07:26:31.392Z,27.90
2019-02-06T07:29:18.937Z,20.75
2019-02-06T07:31:47.141Z,27.37
2019-02-06T07:34:15.345Z,18.45
2019-02-06T07:36:43.557Z,30.55
2019-02-06T07:39:11.750Z,21.42
2019-02-06T07:41:39.953Z,26.62
2019-02-06T07:44:08.150Z,23.35
2019-02-06T07:46:36.352Z,33.08
2019-02-06T07:49:04.542Z,22.42
2019-02-06T07:51:32.750Z,22.82
2019-02-06T07:54:00.956Z,25.55
2019-02-06T07:59:02.501Z,28.17
2019-02-06T08:01:30.712Z,20.95
2019-02-06T08:03:58.904Z,35.88
2019-02-06T08:06:27.110Z,22.22
2019-02-06T08:08:55.309Z,21.52
2019-02-06T08:11:25.253Z,25.52
2019-02-06T08:13:53.451Z,17.32
2019-02-06T08:16:21.654Z,15.85
2019-02-06T08:18:49.845Z,30.48
2019-02-06T08:21:18.067Z,13.72
2019-02-06T08:23:46.252Z,14.60
2019-02-06T08:26:14.459Z,13.40
2019-02-06T08:28:42.668Z,19.65
2019-02-06T08:31:10.859Z,15.03
2019-02-06T08:33:39.061Z,24.23
2019-02-06T08:36:07.254Z,19.05
2019-02-06T08:38:55.668Z,9.88
2019-02-06T08:41:24.726Z,17.62
2019-02-06T08:43:52.944Z,24.70
2019-02-06T08:49:10.868Z,19.23
2019-02-06T08:51:38.309Z,19.00
2019-02-06T08:54:06.511Z,15.80
2019-02-06T08:56:34.702Z,28.67
2019-02-06T08:59:02.911Z,10.50
2019-02-06T09:01:31.109Z,26.73
2019-02-06T09:04:18.747Z,11.33
2019-02-06T09:06:46.940Z,10.98
2019-02-06T09:09:15.157Z,14.98
2019-02-06T09:11:43.358Z,18.00
2019-02-06T09:14:11.568Z,12.95
2019-02-06T09:16:59.123Z,16.70
2019-02-06T09:19:27.323Z,8.95
2019-02-06T09:21:55.522Z,12.55
2019-02-06T09:24:43.096Z,13.13
2019-02-06T09:27:11.294Z,16.17
2019-02-06T09:29:41.210Z,11.57
2019-02-06T09:32:09.406Z,12.33
2019-02-06T09:34:37.647Z,13.78
2019-02-06T09:37:05.837Z,21.62
2019-02-06T09:39:34.065Z,20.05
2019-02-06T09:42:02.239Z,14.73
2019-02-06T09:45:09.245Z,13.18
2019-02-06T09:47:37.430Z,17.48
2019-02-06T09:50:45.749Z,20.80
2019-02-06T09:53:13.979Z,10.13
2019-02-06T09:55:42.191Z,13.13
2019-02-06T10:03:23.561Z,12.88
2019-02-06T10:05:51.741Z,10.10
2019-02-06T10:08:19.989Z,19.12
2019-02-06T10:11:07.541Z,11.97
2019-02-06T10:13:35.748Z,10.40
2019-02-06T10:16:03.943Z,13.20
2019-02-06T10:18:32.166Z,12.20
2019-02-06T10:21:00.383Z,16.45
2019-02-06T10:23:28.603Z,8.93
2019-02-06T10:25:56.813Z,11.43
2019-02-06T10:31:13.986Z,11.15
2019-02-06T10:33:42.170Z,9.73
2019-02-06T10:36:10.372Z,15.78
2019-02-06T10:38:38.564Z,22.48
2019-02-06T10:41:06.758Z,12.70
2019-02-06T10:43:35.888Z,11.30
2019-02-06T10:46:04.867Z,11.60
2019-02-06T10:48:52.432Z,11.75
2019-02-06T10:51:22.360Z,20.65
2019-02-06T10:54:09.667Z,13.72
2019-02-06T10:56:57.225Z,9.45
2019-02-06T11:02:01.283Z,15.40
2019-02-06T11:04:29.507Z,15.03
2019-02-06T11:06:57.699Z,17.55
2019-02-06T11:09:25.894Z,15.75
2019-02-06T11:11:54.092Z,12.93
2019-02-06T11:14:24.002Z,7.03
2019-02-06T11:16:52.222Z,12.88
2019-02-06T11:19:20.401Z,8.78
2019-02-06T11:21:48.607Z,12.03
2019-02-06T11:24:16.796Z,9.68
2019-02-06T11:26:44.991Z,19.48
2019-02-06T11:29:13.176Z,10.85
2019-02-06T11:31:43.116Z,10.35
2019-02-06T11:34:11.307Z,11.43
2019-02-06T11:36:39.498Z,7.90
2019-02-06T11:39:57.637Z,23.07
2019-02-06T11:42:17.719Z,17.45
2019-02-06T11:44:45.911Z,13.60
2019-02-06T11:47:14.120Z,17.35
2019-02-06T11:52:31.181Z,8.80
2019-02-06T11:54:59.367Z,9.55
2019-02-06T12:00:48.847Z,7.83
2019-02-06T12:03:18.423Z,12.18
2019-02-06T12:05:46.607Z,12.35
2019-02-06T12:08:14.807Z,8.90
2019-02-06T12:10:42.985Z,7.35
2019-02-06T12:13:11.194Z,19.80
2019-02-06T12:15:39.372Z,9.15
2019-02-06T12:18:47.673Z,8.18
2019-02-06T12:21:17.824Z,20.95
2019-02-06T12:23:44.824Z,6.97
2019-02-06T12:26:13.005Z,8.93
2019-02-06T12:29:21.317Z,10.40
2019-02-06T12:31:49.504Z,13.68
2019-02-06T12:34:17.700Z,8.70
2019-02-06T12:36:45.886Z,13.85
2019-02-06T12:39:14.110Z,13.13
2019-02-06T12:41:42.295Z,10.08
2019-02-06T12:44:10.484Z,9.75
2019-02-06T12:46:38.671Z,12.43
2019-02-06T12:49:06.870Z,8.93
2019-02-06T12:51:35.079Z,10.65
2019-02-06T12:54:03.304Z,25.72
2019-02-06T12:56:31.475Z,9.93
2019-02-06T12:58:59.686Z,9.15
2019-02-06T13:04:15.119Z,10.78
2019-02-06T13:06:43.322Z,7.90
2019-02-06T13:09:30.904Z,9.33
2019-02-06T13:11:59.095Z,12.47
2019-02-06T13:14:29.018Z,11.48
2019-02-06T13:16:57.204Z,9.75
2019-02-06T13:19:44.772Z,10.82
2019-02-06T13:22:12.957Z,20.27
2019-02-06T13:24:41.153Z,15.68
2019-02-06T13:27:09.344Z,14.73
2019-02-06T13:29:56.931Z,20.30
2019-02-06T13:32:25.109Z,8.35
2019-02-06T13:34:53.300Z,9.15
2019-02-06T13:37:21.485Z,16.77
2019-02-06T13:39:49.684Z,8.65
2019-02-06T13:42:17.882Z,6.00
2019-02-06T13:44:46.105Z,10.43
2019-02-06T13:47:14.286Z,12.23
2019-02-06T13:49:42.485Z,10.28
2019-02-06T13:54:57.935Z,11.20
2019-02-06T13:57:33.582Z,14.95
2019-02-06T13:59:56.098Z,11.90
2019-02-06T14:02:24.280Z,7.12
2019-02-06T14:04:52.476Z,14.05
2019-02-06T14:07:22.376Z,8.78
2019-02-06T14:10:30.737Z,6.90
2019-02-06T14:19:07.466Z,10.00
2019-02-06T14:21:35.654Z,9.43
2019-02-06T14:24:43.981Z,9.93
2019-02-06T14:30:44.209Z,10.98
2019-02-06T14:37:04.635Z,10.88
2019-02-06T14:40:12.963Z,19.05
2019-02-06T14:43:19.937Z,8.60
2019-02-06T14:46:26.936Z,15.38
2019-02-06T14:49:33.916Z,14.63
2019-02-06T14:52:42.496Z,4.97
2019-02-06T14:58:50.948Z,10.70
2019-02-06T15:01:57.942Z,11.28
2019-02-06T15:05:04.955Z,7.28
2019-02-06T15:08:13.264Z,7.75
2019-02-06T15:23:36.585Z,7.35
2019-02-06T15:26:35.738Z,10.72
2019-02-06T15:29:42.738Z,8.93
2019-02-06T15:32:50.019Z,13.00
2019-02-06T15:35:57.874Z,6.03
2019-02-06T15:39:05.145Z,10.50
2019-02-06T15:42:04.478Z,6.92
2019-02-06T15:54:19.173Z,13.25
2019-02-06T16:00:27.525Z,9.43
2019-02-06T16:03:36.243Z,10.45
2019-02-06T16:12:51.021Z,18.55
2019-02-06T16:15:57.989Z,8.53
2019-02-06T16:19:06.366Z,8.78
2019-02-06T16:25:27.272Z,10.80
2019-02-06T16:28:35.572Z,8.95
2019-02-06T16:34:56.035Z,13.98
2019-02-06T16:38:03.030Z,12.95
2019-02-06T16:41:10.023Z,13.88
2019-02-06T16:44:18.422Z,16.10
2019-02-06T16:47:19.407Z,26.15
2019-02-06T16:50:26.405Z,13.35
2019-02-06T16:53:33.408Z,8.70
2019-02-06T16:56:40.396Z,8.58
2019-02-06T16:59:48.703Z,9.90
2019-02-06T17:06:09.968Z,10.60
2019-02-06T17:09:16.985Z,9.73
2019-02-06T17:12:23.988Z,14.20
2019-02-06T17:15:32.334Z,12.25
2019-02-06T17:21:32.286Z,9.35
2019-02-06T17:24:39.282Z,11.97
2019-02-06T17:27:46.271Z,21.10
2019-02-06T17:30:54.951Z,14.05
2019-02-06T17:34:01.938Z,14.05
2019-02-06T17:37:08.940Z,15.45
2019-02-06T17:40:15.931Z,19.10
2019-02-06T17:43:22.919Z,10.98
2019-02-06T17:46:31.236Z,14.03
2019-02-06T17:49:38.211Z,19.77
2019-02-06T17:52:45.206Z,13.78
2019-02-06T17:55:32.839Z,25.08
2019-02-06T17:58:01.021Z,11.22
2019-02-06T18:01:09.384Z,9.95
2019-02-06T18:06:51.189Z,15.63
2019-02-06T18:09:19.377Z,13.65
2019-02-06T18:14:42.106Z,13.60
2019-02-06T18:17:10.307Z,16.77
2019-02-06T18:19:38.495Z,13.18
2019-02-06T18:22:46.803Z,15.23
2019-02-06T18:28:28.592Z,23.45
2019-02-06T18:30:56.788Z,20.20
2019-02-06T18:34:06.829Z,29.05
2019-02-06T18:36:35.029Z,19.17
2019-02-06T18:41:52.285Z,15.98
2019-02-06T18:44:20.474Z,19.95
2019-02-06T18:47:28.799Z,15.50
2019-02-06T18:49:56.989Z,11.88
2019-02-06T18:53:05.324Z,16.97
2019-02-06T18:55:35.312Z,24.35
2019-02-06T18:58:22.878Z,17.77
2019-02-06T19:00:51.095Z,17.17
2019-02-06T19:03:59.525Z,16.65
2019-02-06T19:06:27.670Z,15.00
2019-02-06T19:08:55.878Z,15.88
2019-02-06T19:11:24.655Z,23.45
2019-02-06T19:14:13.107Z,19.52
2019-02-06T19:16:41.384Z,9.68
2019-02-06T19:19:09.591Z,14.80
2019-02-06T19:21:37.803Z,15.68
2019-02-06T19:24:46.148Z,11.68
2019-02-06T19:27:14.644Z,13.43
2019-02-06T19:29:44.305Z,11.20
2019-02-06T19:32:12.538Z,19.73
2019-02-06T19:34:40.713Z,9.55
2019-02-06T19:37:08.910Z,15.88
2019-02-06T19:39:56.485Z,18.85
2019-02-06T19:42:24.698Z,15.80
2019-02-06T19:44:52.889Z,21.05
2019-02-06T19:47:40.204Z,12.43
2019-02-06T19:50:47.208Z,9.60
2019-02-06T19:53:15.501Z,10.75
2019-02-06T19:55:45.316Z,15.05
2019-02-06T19:58:13.546Z,17.02
2019-02-06T20:00:43.487Z,11.70
2019-02-06T20:03:11.687Z,12.30
2019-02-06T20:05:39.878Z,12.58
2019-02-06T20:08:08.105Z,18.12
2019-02-06T20:13:49.824Z,9.48
2019-02-06T20:16:18.037Z,14.93
2019-02-06T20:18:46.263Z,13.72
2019-02-06T20:21:14.450Z,12.33
2019-02-06T20:23:42.651Z,12.68
2019-02-06T20:26:10.840Z,14.47
2019-02-06T20:28:40.768Z,15.30
2019-02-06T20:31:08.959Z,14.63
2019-02-06T20:33:38.884Z,13.88
2019-02-06T20:36:07.072Z,18.70
2019-02-06T20:38:35.271Z,15.08
2019-02-06T20:41:03.464Z,19.05
2019-02-06T20:43:31.668Z,11.90
2019-02-06T20:46:01.603Z,16.55
2019-02-06T20:48:29.798Z,25.23
2019-02-06T20:50:57.988Z,18.70
2019-02-06T20:53:26.193Z,14.15
2019-02-06T20:55:54.383Z,15.58
2019-02-06T20:58:22.589Z,14.65
2019-02-06T21:01:09.894Z,22.42
2019-02-06T21:03:38.091Z,16.87
2019-02-06T21:09:19.810Z,23.30
2019-02-06T21:11:48.011Z,22.65
2019-02-06T21:14:16.209Z,21.75
2019-02-06T21:17:03.840Z,21.52
2019-02-06T21:19:33.754Z,21.17
2019-02-06T21:22:01.948Z,15.68
2019-02-06T21:24:30.168Z,13.35
2019-02-06T21:26:58.356Z,11.25
2019-02-06T21:29:26.559Z,25.82
2019-02-06T21:38:09.622Z,14.78
2019-02-06T21:41:17.938Z,16.30
2019-02-06T21:43:47.847Z,17.75
2019-02-06T21:46:16.053Z,17.62
2019-02-06T21:48:44.248Z,18.55
2019-02-06T21:51:12.448Z,29.25
2019-02-06T21:53:40.638Z,14.25
2019-02-06T21:56:08.840Z,14.33
2019-02-06T21:58:38.756Z,13.45
2019-02-06T22:01:06.968Z,24.23
2019-02-06T22:03:35.155Z,21.55
2019-02-06T22:06:43.470Z,26.90
2019-02-06T22:09:11.681Z,18.98
2019-02-06T22:11:39.909Z,22.10
2019-02-06T22:14:08.104Z,21.50
2019-02-06T22:16:36.306Z,23.62
2019-02-06T22:19:04.500Z,20.95
2019-02-06T22:21:34.448Z,20.15
2019-02-06T22:24:02.639Z,19.20
2019-02-06T22:26:30.851Z,28.60
2019-02-06T22:28:59.043Z,21.35
2019-02-06T22:31:27.248Z,25.40
2019-02-06T22:34:14.821Z,30.92
2019-02-06T22:36:43.022Z,32.75
2019-02-06T22:39:11.358Z,25.80
2019-02-06T22:41:41.179Z,25.20
2019-02-06T22:44:09.367Z,18.10
2019-02-06T22:46:37.571Z,21.48
2019-02-06T22:49:45.869Z,33.63
2019-02-06T22:52:14.093Z,22.93
2019-02-06T22:54:42.287Z,21.27
2019-02-06T22:57:12.234Z,21.10
2019-02-06T22:59:40.420Z,27.73
2019-02-06T23:02:08.623Z,25.90
2019-02-06T23:04:36.810Z,23.65
2019-02-06T23:07:07.172Z,24.67
2019-02-06T23:09:34.919Z,19.12
2019-02-06T23:12:03.122Z,18.20
2019-02-06T23:14:31.333Z,34.45
2019-02-06T23:16:59.535Z,33.95
2019-02-06T23:19:27.726Z,23.25
2019-02-06T23:21:55.926Z,19.15
2019-02-06T23:24:24.114Z,17.82
2019-02-06T23:26:52.314Z,22.50
2019-02-06T23:29:22.223Z,24.23
2019-02-06T23:31:50.422Z,21.60
2019-02-06T23:34:18.611Z,21.77
2019-02-06T23:36:46.820Z,25.50
2019-02-06T23:39:55.111Z,25.48
2019-02-06T23:42:23.340Z,25.48
2019-02-06T23:44:51.527Z,14.85
2019-02-06T23:47:19.727Z,26.42
2019-02-06T23:49:47.940Z,29.82
2019-02-06T23:52:17.862Z,29.12
2019-02-06T23:54:46.072Z,21.60
2019-02-06T23:57:14.270Z,27.27
2019-02-06T23:59:42.458Z,29.18
